메인 페이지
METAR-TAF:

METAR-TAF

공항 :

그란카나리아 섬, 스페인

위도: 27-56N, 경도: 015-23W, 고도: 23m

현재 날씨관측

예보는 27분 전, 03:00시(UTC)에 발표되었습니다.
17kt북북서풍과 북북동풍을 오가는
온도 23°C
습도 69%
기압 1018 hPa
시정 10km 이상
고도 3000ft 상공 구름 많음

METAR: GCLP 170300Z 36017KT 330V030 9999 BKN030 23/17 Q1018 NOSIG

시각: 04:27 (03:27 UTC)

예보

예보는 1 시간 27분 전, 02:00시(UTC)에 발표되었습니다.
예보 대상 시간: 17일 03시부터 18일 03시까지 (UTC)
21kt
시정 10km 이상
고도 3000ft 상공 구름 보통
확률 40% :
일시적
17일 03시부터 18일 01시까지 (UTC)
24kt, 순간 최대 풍속 34kt

TAF: GCLP 170200Z 1703/1803 36021KT 9999 SCT030 TX26/1714Z TN20/1705Z PROB40 TEMPO 1703/1801 36024G34KT

4,000개 이상의 공항 관측 자료 및 예보 (METAR 및 TAF 보고).

지도상에서 검색 가능한 기상관측소가 노란 점과 빨간 점으로 표시되어 있습니다.

기상관측소 명을 보려면 표시 위로 마우스를 이동하세요.

날씨 관측과 예보를 보려면 클릭하세요.

지도 변경 : 확대하려면 엑스 표시가 있는 녹색 버튼, 축소하려면 빼기 표시가 있는 녹색 버튼, 다음 페이지의 지도를 보려면 녹색 화살표를 클릭하세요.


METAR-TAF: